createdAt,value
2024-02-12T00:01:27.064Z,10.02
2024-02-12T00:03:53.841Z,10.07
2024-02-12T00:06:20.801Z,10.13
2024-02-12T00:08:47.852Z,10.21
2024-02-12T00:11:14.811Z,10.27
2024-02-12T00:13:41.557Z,10.33
2024-02-12T00:16:08.326Z,10.37
2024-02-12T00:18:35.144Z,10.42
2024-02-12T00:21:01.912Z,10.45
2024-02-12T00:23:28.904Z,10.44
2024-02-12T00:25:55.759Z,10.46
2024-02-12T00:28:22.541Z,10.51
2024-02-12T00:30:49.369Z,10.55
2024-02-12T00:33:16.162Z,10.58
2024-02-12T00:35:43.128Z,10.62
2024-02-12T00:38:10.009Z,10.47
2024-02-12T00:40:36.736Z,10.62
2024-02-12T00:43:03.578Z,10.63
2024-02-12T00:45:30.330Z,10.58
2024-02-12T00:47:57.164Z,10.62
2024-02-12T00:50:24.101Z,10.62
2024-02-12T00:52:50.943Z,10.60
2024-02-12T00:55:17.728Z,10.60
2024-02-12T00:57:44.495Z,10.57
2024-02-12T01:00:11.900Z,10.53
2024-02-12T01:02:38.652Z,10.53
2024-02-12T01:05:05.717Z,10.53
2024-02-12T01:07:32.439Z,10.52
2024-02-12T01:09:59.141Z,10.52
2024-02-12T01:12:25.952Z,10.54
2024-02-12T01:14:52.710Z,10.56
2024-02-12T01:17:19.509Z,10.56
2024-02-12T01:19:46.264Z,10.56
2024-02-12T01:22:12.983Z,10.53
2024-02-12T01:24:39.735Z,10.51
2024-02-12T01:27:06.509Z,10.54
2024-02-12T01:29:33.328Z,10.52
2024-02-12T01:32:00.100Z,10.54
2024-02-12T01:34:26.890Z,10.55
2024-02-12T01:36:53.648Z,10.55
2024-02-12T01:39:20.406Z,10.58
2024-02-12T01:41:47.086Z,10.60
2024-02-12T01:44:13.902Z,10.65
2024-02-12T01:46:40.616Z,10.66
2024-02-12T01:49:07.615Z,10.68
2024-02-12T01:51:34.642Z,10.66
2024-02-12T01:54:01.565Z,10.65
2024-02-12T01:56:31.645Z,10.64
2024-02-12T01:58:59.681Z,10.64
2024-02-12T02:01:26.425Z,10.62
2024-02-12T02:03:53.291Z,10.63
2024-02-12T02:06:20.164Z,10.63
2024-02-12T02:08:46.951Z,10.62
2024-02-12T02:11:13.830Z,10.65
2024-02-12T02:13:44.533Z,10.64
2024-02-12T02:16:14.550Z,10.67
2024-02-12T02:18:48.742Z,10.65
2024-02-12T02:21:15.468Z,10.67
2024-02-12T02:23:42.577Z,10.65
2024-02-12T02:26:09.970Z,10.64
2024-02-12T02:28:36.803Z,10.63
2024-02-12T02:31:03.562Z,10.60
2024-02-12T02:33:30.293Z,10.58
2024-02-12T02:35:57.043Z,10.57
2024-02-12T02:38:24.318Z,10.56
2024-02-12T02:40:51.135Z,10.56
2024-02-12T02:43:17.885Z,10.61
2024-02-12T02:45:44.652Z,10.63
2024-02-12T02:48:11.472Z,10.63
2024-02-12T02:50:38.452Z,10.65
2024-02-12T02:53:05.255Z,10.65
2024-02-12T02:55:32.021Z,10.66
2024-02-12T02:57:59.076Z,10.73
2024-02-12T03:00:25.840Z,10.73
2024-02-12T03:02:52.948Z,10.72
2024-02-12T03:05:19.819Z,10.72
2024-02-12T03:07:46.656Z,10.70
2024-02-12T03:10:13.689Z,10.65
2024-02-12T03:12:40.503Z,10.66
2024-02-12T03:15:07.759Z,10.64
2024-02-12T03:17:34.573Z,10.57
2024-02-12T03:20:01.463Z,10.55
2024-02-12T03:22:28.178Z,10.51
2024-02-12T03:24:54.898Z,10.36
2024-02-12T03:27:21.712Z,10.38
2024-02-12T03:29:48.508Z,10.29
2024-02-12T03:32:15.256Z,10.20
2024-02-12T03:34:42.018Z,10.12
2024-02-12T03:37:08.931Z,10.11
2024-02-12T03:39:35.698Z,10.06
2024-02-12T03:42:02.435Z,9.98
2024-02-12T03:44:29.178Z,10.05
2024-02-12T03:46:55.987Z,10.01
2024-02-12T03:49:22.887Z,9.97
2024-02-12T03:51:50.052Z,9.93
2024-02-12T03:54:16.883Z,9.90
2024-02-12T03:56:43.638Z,9.87
2024-02-12T03:59:10.416Z,9.86
2024-02-12T04:01:37.141Z,9.82
2024-02-12T04:04:03.953Z,9.73
2024-02-12T04:06:30.740Z,9.75
2024-02-12T04:08:57.544Z,9.73
2024-02-12T04:11:24.281Z,9.71
2024-02-12T04:13:51.450Z,9.67
2024-02-12T04:16:18.210Z,9.61
2024-02-12T04:18:44.940Z,9.57
2024-02-12T04:21:11.781Z,9.58
2024-02-12T04:23:38.695Z,9.52
2024-02-12T04:26:06.016Z,9.55
2024-02-12T04:28:32.716Z,9.50
2024-02-12T04:30:59.452Z,9.49
2024-02-12T04:33:26.247Z,9.46
2024-02-12T04:35:53.078Z,9.43
2024-02-12T04:38:19.759Z,9.38
2024-02-12T04:40:46.569Z,9.40
2024-02-12T04:43:13.346Z,9.40
2024-02-12T04:45:40.073Z,9.42
2024-02-12T04:48:12.325Z,9.34
2024-02-12T04:50:39.128Z,9.40
2024-02-12T04:53:05.860Z,9.43
2024-02-12T04:55:32.571Z,9.47
2024-02-12T04:57:59.310Z,9.49
2024-02-12T05:00:26.048Z,9.53
2024-02-12T05:02:52.728Z,9.53
2024-02-12T05:05:19.582Z,9.51
2024-02-12T05:07:46.399Z,9.50
2024-02-12T05:10:13.176Z,9.44
2024-02-12T05:12:40.137Z,9.43
2024-02-12T05:15:07.521Z,9.36
2024-02-12T05:17:34.360Z,9.37
2024-02-12T05:20:01.290Z,9.37
2024-02-12T05:22:28.059Z,9.39
2024-02-12T05:24:54.806Z,9.42
2024-02-12T05:27:21.519Z,9.39
2024-02-12T05:29:48.305Z,9.50
2024-02-12T05:32:15.130Z,9.48
2024-02-12T05:34:41.972Z,9.46
2024-02-12T05:37:08.675Z,9.51
2024-02-12T05:42:45.124Z,9.58
2024-02-12T05:45:11.883Z,9.61
2024-02-12T05:47:38.738Z,9.60
2024-02-12T05:50:06.133Z,9.63
2024-02-12T05:52:32.840Z,9.67
2024-02-12T05:54:59.595Z,9.72
2024-02-12T05:57:26.333Z,9.67
2024-02-12T05:59:53.079Z,9.76
2024-02-12T06:02:19.881Z,9.73
2024-02-12T06:04:46.710Z,9.78
2024-02-12T06:07:13.612Z,9.80
2024-02-12T06:09:40.454Z,9.80
2024-02-12T06:12:07.591Z,9.79
2024-02-12T06:14:34.532Z,9.75
2024-02-12T06:17:01.342Z,9.77
2024-02-12T06:19:28.116Z,9.73
2024-02-12T06:21:54.877Z,9.72
2024-02-12T06:24:21.635Z,9.69
2024-02-12T06:26:48.416Z,9.68
2024-02-12T06:29:15.222Z,9.72
2024-02-12T06:31:42.839Z,9.76
2024-02-12T06:34:09.744Z,9.83
2024-02-12T06:36:36.560Z,9.86
2024-02-12T06:39:03.583Z,9.87
2024-02-12T06:41:30.481Z,9.90
2024-02-12T06:43:57.396Z,9.88
2024-02-12T06:46:24.098Z,9.96
2024-02-12T06:48:51.010Z,9.99
2024-02-12T06:51:17.783Z,9.99
2024-02-12T06:53:44.479Z,10.03
2024-02-12T06:56:11.527Z,10.01
2024-02-12T06:58:40.740Z,10.07
2024-02-12T07:01:07.521Z,10.10
2024-02-12T07:03:34.256Z,10.10
2024-02-12T07:06:01.219Z,10.14
2024-02-12T07:08:28.052Z,10.25
2024-02-12T07:10:54.782Z,10.30
2024-02-12T07:13:21.607Z,10.38
2024-02-12T07:15:48.340Z,10.45
2024-02-12T07:18:15.184Z,10.52
2024-02-12T07:20:42.116Z,10.56
2024-02-12T07:23:09.197Z,10.57
2024-02-12T07:25:35.995Z,10.57
2024-02-12T07:28:02.765Z,10.56
2024-02-12T07:30:29.503Z,10.61
2024-02-12T07:32:56.326Z,10.58
2024-02-12T07:35:23.168Z,10.64
2024-02-12T07:37:49.964Z,10.64
2024-02-12T07:40:16.772Z,10.67
2024-02-12T07:42:43.503Z,10.72
2024-02-12T07:45:10.214Z,10.76
2024-02-12T07:47:37.066Z,10.81
2024-02-12T07:50:04.375Z,10.86
2024-02-12T07:52:31.157Z,10.90
2024-02-12T07:54:57.959Z,10.84
2024-02-12T07:57:24.668Z,10.90
2024-02-12T07:59:51.442Z,10.94
2024-02-12T08:02:18.237Z,11.03
2024-02-12T08:04:45.692Z,11.08
2024-02-12T08:07:12.551Z,11.07
2024-02-12T08:09:39.319Z,11.07
2024-02-12T08:12:06.425Z,11.09
2024-02-12T08:14:33.379Z,11.10
2024-02-12T08:17:01.112Z,11.02
2024-02-12T08:19:27.964Z,11.13
2024-02-12T08:21:54.719Z,11.14
2024-02-12T08:24:21.590Z,11.34
2024-02-12T08:26:48.381Z,11.44
2024-02-12T08:29:15.188Z,11.55
2024-02-12T08:31:41.968Z,11.59
2024-02-12T08:34:08.786Z,11.62
2024-02-12T08:36:35.605Z,11.70
2024-02-12T08:39:02.326Z,11.66
2024-02-12T08:41:29.093Z,11.63
2024-02-12T08:43:55.873Z,11.63
2024-02-12T08:46:23.716Z,11.65
2024-02-12T08:48:50.503Z,11.70
2024-02-12T08:51:17.490Z,11.71
2024-02-12T08:53:44.522Z,11.78
2024-02-12T08:56:14.733Z,11.76
2024-02-12T08:58:43.349Z,11.89
2024-02-12T09:01:10.159Z,12.27
2024-02-12T09:03:40.780Z,12.90
2024-02-12T09:06:08.178Z,13.59
2024-02-12T09:08:35.035Z,14.31
2024-02-12T09:11:01.977Z,14.76
2024-02-12T09:13:28.750Z,14.98
2024-02-12T09:15:55.518Z,15.08
2024-02-12T09:18:22.393Z,15.11
2024-02-12T09:20:49.169Z,15.08
2024-02-12T09:23:15.981Z,14.98
2024-02-12T09:25:42.727Z,14.97
2024-02-12T09:28:09.489Z,15.04
2024-02-12T09:30:36.336Z,15.25
2024-02-12T09:33:03.257Z,15.50
2024-02-12T09:35:30.208Z,15.98
2024-02-12T09:40:23.945Z,17.25
2024-02-12T09:42:54.262Z,17.92
2024-02-12T09:45:24.109Z,18.28
2024-02-12T09:47:52.588Z,18.44
2024-02-12T09:50:19.511Z,18.54
2024-02-12T09:52:46.628Z,18.53
2024-02-12T09:55:13.844Z,18.57
2024-02-12T09:57:40.651Z,18.58
2024-02-12T10:00:08.046Z,18.64
2024-02-12T10:02:37.710Z,18.73
2024-02-12T10:05:05.891Z,18.76
2024-02-12T10:07:39.425Z,18.84
2024-02-12T10:10:07.215Z,19.08
2024-02-12T10:12:34.583Z,19.35
2024-02-12T10:15:01.893Z,19.43
2024-02-12T10:17:28.707Z,19.23
2024-02-12T10:19:55.566Z,19.01
2024-02-12T10:22:24.869Z,19.25
2024-02-12T10:24:51.630Z,19.82
2024-02-12T10:27:21.735Z,20.36
2024-02-12T10:29:59.077Z,20.41
2024-02-12T10:32:26.934Z,20.31
2024-02-12T10:34:55.370Z,20.08
2024-02-12T10:37:27.661Z,19.89
2024-02-12T10:39:56.548Z,19.61
2024-02-12T10:42:40.497Z,19.28
2024-02-12T10:45:08.250Z,18.77
2024-02-12T10:47:35.175Z,18.55
2024-02-12T10:50:02.478Z,18.61
2024-02-12T10:52:29.651Z,19.03
2024-02-12T10:54:57.799Z,19.24
2024-02-12T10:57:26.014Z,19.40
2024-02-12T11:00:02.170Z,19.36
2024-02-12T11:02:29.106Z,19.42
2024-02-12T11:05:02.955Z,19.39
2024-02-12T11:07:30.096Z,19.58
2024-02-12T11:10:06.856Z,19.67
2024-02-12T11:12:33.613Z,19.59
2024-02-12T11:15:03.915Z,19.16
2024-02-12T11:17:30.818Z,18.29
2024-02-12T11:19:57.725Z,17.35
2024-02-12T11:22:28.824Z,16.59
2024-02-12T11:25:10.192Z,15.96
2024-02-12T11:27:51.624Z,15.91
2024-02-12T11:30:18.921Z,16.41
2024-02-12T11:32:49.602Z,16.97
2024-02-12T11:35:18.593Z,17.57
2024-02-12T11:37:46.659Z,18.22
2024-02-12T11:40:19.543Z,18.74
2024-02-12T11:42:47.413Z,19.05
2024-02-12T11:45:14.286Z,18.97
2024-02-12T11:47:41.151Z,18.60
2024-02-12T11:50:08.177Z,18.44
2024-02-12T11:52:34.886Z,18.91
2024-02-12T11:55:01.612Z,19.47
2024-02-12T11:57:28.406Z,19.87
2024-02-12T11:59:58.325Z,20.21
2024-02-12T12:02:26.093Z,20.58
2024-02-12T12:04:52.951Z,20.79
2024-02-12T12:07:19.693Z,20.98
2024-02-12T12:09:46.410Z,21.32
2024-02-12T12:12:13.180Z,21.63
2024-02-12T12:14:41.217Z,21.33
2024-02-12T12:17:29.300Z,20.74
2024-02-12T12:19:58.085Z,19.84
2024-02-12T12:22:24.868Z,18.85
2024-02-12T12:24:51.608Z,17.88
2024-02-12T12:27:27.670Z,17.17
2024-02-12T12:29:55.767Z,16.70
2024-02-12T12:32:22.679Z,16.32
2024-02-12T12:34:49.479Z,16.42
2024-02-12T12:37:16.338Z,16.87
2024-02-12T12:39:45.843Z,17.44
2024-02-12T12:42:12.611Z,18.07
2024-02-12T12:44:40.045Z,18.62
2024-02-12T12:47:07.502Z,19.01
2024-02-12T12:49:34.440Z,19.22
2024-02-12T12:52:01.223Z,19.32
2024-02-12T12:54:27.991Z,19.56
2024-02-12T12:56:54.746Z,19.97
2024-02-12T12:59:21.832Z,20.19
2024-02-12T13:01:48.647Z,20.53
2024-02-12T13:04:15.429Z,20.93
2024-02-12T13:06:45.268Z,20.92
2024-02-12T13:09:13.406Z,20.68
2024-02-12T13:11:42.394Z,20.32
2024-02-12T13:14:09.233Z,19.93
2024-02-12T13:16:36.141Z,19.30
2024-02-12T13:19:03.671Z,18.63
2024-02-12T13:21:30.468Z,18.13
2024-02-12T13:23:58.673Z,17.51
2024-02-12T13:26:25.478Z,17.01
2024-02-12T13:28:52.381Z,16.66
2024-02-12T13:31:19.122Z,16.53
2024-02-12T13:33:46.189Z,16.71
2024-02-12T13:36:13.852Z,17.02
2024-02-12T13:38:40.793Z,17.24
2024-02-12T13:41:07.837Z,17.17
2024-02-12T13:43:34.733Z,16.82
2024-02-12T13:46:01.600Z,16.37
2024-02-12T13:48:31.181Z,15.98
2024-02-12T13:50:57.992Z,15.62
2024-02-12T13:53:24.880Z,15.54
2024-02-12T13:55:53.174Z,15.70
2024-02-12T13:58:19.995Z,16.05
2024-02-12T14:01:03.167Z,16.47
2024-02-12T14:03:34.269Z,16.87
2024-02-12T14:06:01.332Z,17.10
2024-02-12T14:08:28.278Z,17.44
2024-02-12T14:10:55.037Z,17.83
2024-02-12T14:13:21.707Z,18.05
2024-02-12T14:16:04.990Z,18.03
2024-02-12T14:18:35.635Z,17.83
2024-02-12T14:21:02.619Z,17.59
2024-02-12T14:23:29.418Z,17.30
2024-02-12T14:25:56.256Z,16.78
2024-02-12T14:28:23.106Z,16.24
2024-02-12T14:30:49.876Z,15.65
2024-02-12T14:33:19.819Z,15.04
2024-02-12T14:35:46.753Z,14.53
2024-02-12T14:38:13.669Z,14.15
2024-02-12T14:40:40.865Z,13.75
2024-02-12T14:43:07.568Z,13.42
2024-02-12T14:45:34.384Z,13.28
2024-02-12T14:48:01.549Z,13.19
2024-02-12T14:50:28.522Z,13.12
2024-02-12T14:52:56.623Z,13.04
2024-02-12T14:55:23.477Z,13.23
2024-02-12T14:57:50.280Z,13.45
2024-02-12T15:00:17.410Z,13.68
2024-02-12T15:02:45.334Z,13.79
2024-02-12T15:05:12.149Z,13.89
2024-02-12T15:07:38.896Z,13.96
2024-02-12T15:10:05.966Z,13.94
2024-02-12T15:12:32.688Z,13.98
2024-02-12T15:14:59.437Z,13.86
2024-02-12T15:17:26.278Z,13.78
2024-02-12T15:19:53.029Z,13.69
2024-02-12T15:22:20.034Z,13.58
2024-02-12T15:24:46.874Z,13.43
2024-02-12T15:27:13.583Z,13.33
2024-02-12T15:29:40.536Z,13.21
2024-02-12T15:32:08.102Z,13.07
2024-02-12T15:34:34.857Z,12.92
2024-02-12T15:37:01.640Z,12.68
2024-02-12T15:39:28.320Z,12.64
2024-02-12T15:41:55.056Z,12.46
2024-02-12T15:44:21.838Z,12.40
2024-02-12T15:46:49.308Z,12.20
2024-02-12T15:49:16.161Z,12.18
2024-02-12T15:51:46.146Z,12.09
2024-02-12T15:54:12.929Z,12.05
2024-02-12T15:56:39.667Z,11.99
2024-02-12T15:59:06.387Z,11.92
2024-02-12T16:01:33.172Z,11.85
2024-02-12T16:04:00.018Z,11.78
2024-02-12T16:06:26.952Z,11.70
2024-02-12T16:08:53.768Z,11.62
2024-02-12T16:11:22.586Z,11.50
2024-02-12T16:13:51.282Z,11.45
2024-02-12T16:16:18.036Z,11.37
2024-02-12T16:18:44.802Z,11.27
2024-02-12T16:21:11.619Z,11.18
2024-02-12T16:23:38.476Z,11.12
2024-02-12T16:26:05.636Z,11.03
2024-02-12T16:28:32.468Z,10.95
2024-02-12T16:30:59.319Z,10.87
2024-02-12T16:33:26.356Z,10.79
2024-02-12T16:35:53.135Z,10.74
2024-02-12T16:38:20.129Z,10.68
2024-02-12T16:40:46.873Z,10.62
2024-02-12T16:43:13.579Z,10.57
2024-02-12T16:45:40.474Z,10.48
2024-02-12T16:48:11.039Z,10.39
2024-02-12T16:50:40.056Z,10.46
2024-02-12T16:53:06.870Z,10.43
2024-02-12T16:55:33.651Z,10.38
2024-02-12T16:58:00.422Z,10.38
2024-02-12T17:00:27.825Z,10.38
2024-02-12T17:02:55.085Z,10.34
2024-02-12T17:05:22.408Z,10.36
2024-02-12T17:07:58.103Z,10.30
2024-02-12T17:10:33.260Z,10.32
2024-02-12T17:13:00.005Z,10.31
2024-02-12T17:15:26.939Z,10.26
2024-02-12T17:17:53.772Z,10.29
2024-02-12T17:20:20.869Z,10.28
2024-02-12T17:22:47.773Z,10.27
2024-02-12T17:25:14.888Z,10.27
2024-02-12T17:27:41.629Z,10.27
2024-02-12T17:30:08.577Z,10.26
2024-02-12T17:32:35.670Z,10.21
2024-02-12T17:35:03.945Z,10.23
2024-02-12T17:37:31.106Z,10.24
2024-02-12T17:39:57.836Z,10.23
2024-02-12T17:42:24.662Z,10.12
2024-02-12T17:44:51.437Z,10.19
2024-02-12T17:47:18.222Z,10.24
2024-02-12T17:49:46.079Z,10.24
2024-02-12T17:52:12.901Z,10.26
2024-02-12T17:54:39.674Z,10.21
2024-02-12T17:57:06.424Z,10.24
2024-02-12T17:59:33.233Z,10.23
2024-02-12T18:01:59.965Z,10.21
2024-02-12T18:04:26.926Z,10.18
2024-02-12T18:06:53.708Z,10.15
2024-02-12T18:09:20.471Z,10.13
2024-02-12T18:11:47.308Z,10.15
2024-02-12T18:14:14.110Z,9.99
2024-02-12T18:16:40.898Z,10.14
2024-02-12T18:19:07.769Z,10.12
2024-02-12T18:21:34.543Z,10.05
2024-02-12T18:24:01.301Z,10.06
2024-02-12T18:26:28.059Z,10.04
2024-02-12T18:28:54.829Z,10.00
2024-02-12T18:31:21.526Z,9.96
2024-02-12T18:33:48.691Z,9.91
2024-02-12T18:36:15.513Z,9.82
2024-02-12T18:38:42.402Z,9.73
2024-02-12T18:41:09.791Z,9.65
2024-02-12T18:43:38.087Z,9.56
2024-02-12T18:46:05.084Z,9.49
2024-02-12T18:48:32.382Z,9.46
2024-02-12T18:51:00.058Z,9.40
2024-02-12T18:53:29.715Z,9.35
2024-02-12T18:55:56.518Z,9.36
2024-02-12T18:58:23.976Z,9.31
2024-02-12T19:00:51.220Z,9.36
2024-02-12T19:03:18.041Z,9.34
2024-02-12T19:05:48.224Z,9.29
2024-02-12T19:08:15.142Z,9.25
2024-02-12T19:10:41.933Z,9.22
2024-02-12T19:13:08.885Z,9.27
2024-02-12T19:15:35.629Z,9.25
2024-02-12T19:18:02.559Z,9.25
2024-02-12T19:20:29.520Z,9.24
2024-02-12T19:22:56.297Z,9.24
2024-02-12T19:25:23.015Z,9.17
2024-02-12T19:27:49.731Z,9.23
2024-02-12T19:30:16.593Z,9.22
2024-02-12T19:32:43.468Z,9.18
2024-02-12T19:35:10.980Z,9.17
2024-02-12T19:37:38.175Z,9.13
2024-02-12T19:40:10.474Z,9.04
2024-02-12T19:42:41.666Z,9.05
2024-02-12T19:45:08.836Z,9.02
2024-02-12T19:47:35.933Z,8.93
2024-02-12T19:50:03.238Z,8.83
2024-02-12T19:52:30.142Z,8.89
2024-02-12T19:54:56.880Z,8.88
2024-02-12T19:57:24.338Z,8.85
2024-02-12T19:59:51.154Z,8.84
2024-02-12T20:02:18.051Z,8.83
2024-02-12T20:04:45.238Z,8.83
2024-02-12T20:07:12.021Z,8.80
2024-02-12T20:09:38.805Z,8.80
2024-02-12T20:12:05.858Z,8.77
2024-02-12T20:14:32.723Z,8.74
2024-02-12T20:16:59.510Z,8.72
2024-02-12T20:19:27.784Z,8.70
2024-02-12T20:21:54.744Z,8.67
2024-02-12T20:24:21.515Z,8.67
2024-02-12T20:26:48.340Z,8.69
2024-02-12T20:29:15.145Z,8.67
2024-02-12T20:31:41.922Z,8.68
2024-02-12T20:34:08.867Z,8.66
2024-02-12T20:36:36.340Z,8.64
2024-02-12T20:39:03.849Z,8.49
2024-02-12T20:41:30.663Z,8.53
2024-02-12T20:43:59.914Z,8.54
2024-02-12T20:46:26.615Z,8.49
2024-02-12T20:48:53.380Z,8.55
2024-02-12T20:51:20.147Z,8.54
2024-02-12T20:53:46.944Z,8.54
2024-02-12T20:56:13.739Z,8.52
2024-02-12T20:58:40.502Z,8.54
2024-02-12T21:01:07.220Z,8.52
2024-02-12T21:03:33.999Z,8.51
2024-02-12T21:06:00.788Z,8.52
2024-02-12T21:08:27.655Z,8.40
2024-02-12T21:10:54.421Z,8.49
2024-02-12T21:13:21.172Z,8.49
2024-02-12T21:15:48.023Z,8.51
2024-02-12T21:18:17.831Z,8.49
2024-02-12T21:20:44.701Z,8.49
2024-02-12T21:23:11.507Z,8.47
2024-02-12T21:25:38.344Z,8.48
2024-02-12T21:28:05.442Z,8.48
2024-02-12T21:30:32.195Z,8.44
2024-02-12T21:32:59.121Z,8.50
2024-02-12T21:35:25.994Z,8.46
2024-02-12T21:37:52.788Z,8.55
2024-02-12T21:40:19.498Z,8.60
2024-02-12T21:42:46.234Z,8.65
2024-02-12T21:45:13.005Z,8.70
2024-02-12T21:47:39.977Z,8.75
2024-02-12T21:50:07.163Z,8.79
2024-02-12T21:52:33.904Z,8.81
2024-02-12T21:55:00.909Z,8.73
2024-02-12T21:57:27.689Z,8.84
2024-02-12T21:59:54.961Z,8.84
2024-02-12T22:02:22.261Z,8.72
2024-02-12T22:04:58.215Z,8.77
2024-02-12T22:07:24.920Z,8.82
2024-02-12T22:09:51.668Z,8.74
2024-02-12T22:12:18.627Z,8.79
2024-02-12T22:14:46.034Z,8.78
2024-02-12T22:17:13.388Z,8.78
2024-02-12T22:19:40.471Z,8.77
2024-02-12T22:22:07.276Z,8.77
2024-02-12T22:24:34.026Z,8.78
2024-02-12T22:27:00.733Z,8.77
2024-02-12T22:29:27.476Z,8.78
2024-02-12T22:31:54.230Z,8.77
2024-02-12T22:34:20.999Z,8.80
2024-02-12T22:36:47.780Z,8.75
2024-02-12T22:39:14.488Z,8.79
2024-02-12T22:41:42.585Z,8.79
2024-02-12T22:44:09.571Z,8.81
2024-02-12T22:46:37.078Z,8.81
2024-02-12T22:49:04.118Z,8.81
2024-02-12T22:51:31.204Z,8.84
2024-02-12T22:53:57.994Z,8.81
2024-02-12T22:56:24.826Z,8.81
2024-02-12T22:58:51.632Z,8.89
2024-02-12T23:01:18.487Z,8.84
2024-02-12T23:03:45.269Z,8.86
2024-02-12T23:06:13.353Z,8.88
2024-02-12T23:08:40.224Z,8.90
2024-02-12T23:11:11.092Z,8.90
2024-02-12T23:13:37.963Z,8.88
2024-02-12T23:16:05.125Z,8.80
2024-02-12T23:18:32.011Z,8.82
2024-02-12T23:20:59.184Z,8.78
2024-02-12T23:23:26.065Z,8.67
2024-02-12T23:25:52.846Z,8.73
2024-02-12T23:28:25.450Z,8.71
2024-02-12T23:30:52.228Z,8.60
2024-02-12T23:33:19.299Z,8.57
2024-02-12T23:35:46.380Z,8.53
2024-02-12T23:38:13.145Z,8.46
2024-02-12T23:40:39.903Z,8.41
2024-02-12T23:43:06.691Z,8.33
2024-02-12T23:45:33.384Z,8.29
2024-02-12T23:48:00.285Z,8.23
2024-02-12T23:50:27.193Z,8.19
2024-02-12T23:52:53.967Z,8.13
2024-02-12T23:55:20.768Z,8.11
2024-02-12T23:57:47.485Z,8.07
